Pagrindinis puslapis
METAR-TAF:

METAR-TAF

Oro uostai :

San Paulas-Congonhas, San Paulas, Brazilija

platuma: 23-37S, ilguma: 046-39W, Aukštis: 803 m

Dabartinis oras

Ataskaita buvo paskelbta 1 valandą ir 4 minutes, ne 21:00 UTC
Vėjas 7 kt iš Pietų/Pietryčių
Temperatūra 30°C
Drėgmė 33%
Slėgis 1018 hPa
Matomumas 10 km arba daugiau
nėra debesų žemiau 1500 m ir nėra kamuolinių lietaus debesų

METAR: SBSP 162100Z 16007KT CAVOK 30/12 Q1018

Laikas: 19:04 (22:04 UTC)

Prognozė

Ataskaita buvo paskelbta 5 valandos ir 58 minutes, ne 16:06 UTC
Prognozė galioja nuo 16 metu 18 UTC su 17 metu 06 UTC
Vėjas 5 kt iš Rytų
Matomumas 10 km arba daugiau
nėra debesų žemiau 1500 m ir nėra kamuolinių lietaus debesų
Tapsmas
nuo 16 metu 20 UTC su 16 metu 22 UTC
Vėjas 5 kt iš Pietų/Pietryčių
Tapsmas
nuo 17 metu 03 UTC su 17 metu 05 UTC
Vėjas 5 kt iš Šiaurės/Šiaurės Rytų

TAF: SBSP 161606Z 1618/1706 09005KT CAVOK TX34/1618Z TN22/1705Z BECMG 1620/1622 15005KT BECMG 1703/1705 02005KT RMK PHM

Orai ataskaitas ir orų prognozės (METAR, TAF).

turimą stotys yra geltonos ir raudonos taškus žemėlapyje.

Perkelti pele per norėdami pamatyti stoties vardą.

Tada spustelėkite, norėdami matyti oro stebėjimo ir prognozės.

Norėdami pakeisti žemėlapį: spustelėkite ant žalios mygtukų su juodo kryžiaus žemyn,; žalią mygtuką su brūkšneliu, jei norite nutolinti; arba žalių rodyklių gretimoms žemėlapius.


METAR-TAF: